Time;durP1;ratioP1;P1;durP2;ratioP2;P2;SDS_P1;SDS_P2;PMS_P1;PMS_P2;Temp;Humidity;BMP_temperature;BMP_pressure;BME280_temperature;BME280_humidity;BME280_pressure;Samples;Min_cycle;Max_cycle;Signal;HPM_P1;HPM_P2
2023/05/25 00:01:53;;;;;;;5.60;4.43;;;;;;;12.02;58.52;102284.28;4890960;28;97797;-50
2023/05/25 00:04:19;;;;;;;7.07;4.43;;;;;;;11.96;58.46;102286.16;4892968;28;97116;-50
2023/05/25 00:06:46;;;;;;;6.33;4.40;;;;;;;11.91;58.54;102269.44;4894570;28;96887;-49
2023/05/25 00:09:11;;;;;;;8.00;4.50;;;;;;;11.87;58.62;102272.38;4895801;28;97522;-51
2023/05/25 00:11:37;;;;;;;5.23;3.90;;;;;;;11.83;58.72;102277.28;4892461;28;97257;-49
2023/05/25 00:14:03;;;;;;;6.00;4.17;;;;;;;11.86;58.78;102279.09;4890158;28;97162;-50
2023/05/25 00:16:28;;;;;;;4.60;4.20;;;;;;;11.86;58.79;102270.06;4894489;28;97498;-50
2023/05/25 00:18:56;;;;;;;5.77;4.17;;;;;;;11.82;58.90;102270.22;4894426;28;96989;-51
2023/05/25 00:21:23;;;;;;;10.93;4.37;;;;;;;11.79;58.67;102273.91;4894653;28;97156;-48
2023/05/25 00:23:48;;;;;;;5.37;3.97;;;;;;;11.76;58.89;102272.06;4892209;28;97120;-51
2023/05/25 00:26:13;;;;;;;8.03;4.37;;;;;;;11.76;59.02;102271.28;4892097;28;97777;-50
2023/05/25 00:28:39;;;;;;;14.10;5.30;;;;;;;11.75;58.95;102273.28;4895799;28;97246;-49
2023/05/25 00:31:04;;;;;;;7.37;4.43;;;;;;;11.74;58.79;102274.53;4894174;28;97288;-50
2023/05/25 00:33:29;;;;;;;6.30;4.30;;;;;;;11.74;58.96;102287.53;4895095;28;99336;-50
2023/05/25 00:35:56;;;;;;;4.73;4.17;;;;;;;11.69;58.66;102269.63;4893332;28;96862;-51
2023/05/25 00:38:21;;;;;;;5.97;4.43;;;;;;;11.66;58.86;102267.75;4892758;28;97197;-51
2023/05/25 00:40:46;;;;;;;5.40;4.40;;;;;;;11.64;58.94;102275.69;4891601;28;96841;-50
2023/05/25 00:43:12;;;;;;;6.20;4.47;;;;;;;11.64;58.87;102270.19;4894691;28;97252;-50
2023/05/25 00:45:38;;;;;;;5.73;4.00;;;;;;;11.60;58.55;102266.81;4892576;28;98526;-49
2023/05/25 00:48:05;;;;;;;4.30;3.90;;;;;;;11.55;58.66;102270.22;4893961;28;98897;-51
2023/05/25 00:50:39;;;;;;;5.80;3.63;;;;;;;11.52;59.04;102262.06;4895117;28;97094;-50
2023/05/25 00:53:05;;;;;;;7.93;4.27;;;;;;;11.50;58.78;102265.31;4892214;28;97262;-49
2023/05/25 00:55:36;;;;;;;8.50;4.10;;;;;;;11.47;59.00;102260.69;4893908;28;98302;-50
2023/05/25 00:58:03;;;;;;;8.03;4.60;;;;;;;11.46;58.71;102269.44;4892454;28;96762;-50
2023/05/25 01:00:31;;;;;;;6.30;4.57;;;;;;;11.44;58.59;102260.84;4894209;28;97019;-50
2023/05/25 01:02:58;;;;;;;6.97;4.80;;;;;;;11.39;58.79;102262.22;4890498;28;97119;-48
2023/05/25 01:05:27;;;;;;;5.07;4.43;;;;;;;11.33;58.75;102255.81;4892583;28;97001;-51
2023/05/25 01:07:55;;;;;;;7.77;4.07;;;;;;;11.29;58.51;102260.72;4890106;28;96934;-50
2023/05/25 01:10:23;;;;;;;4.90;4.23;;;;;;;11.20;58.62;102269.69;4893154;28;97094;-49
2023/05/25 01:12:52;;;;;;;4.80;4.30;;;;;;;11.15;58.71;102264.81;4891796;28;97274;-50
2023/05/25 01:15:19;;;;;;;5.80;4.53;;;;;;;11.12;58.84;102257.44;4889208;28;97409;-50
2023/05/25 01:17:44;;;;;;;6.40;4.67;;;;;;;11.07;59.10;102265.56;4890837;28;98077;-49
2023/05/25 01:20:11;;;;;;;5.37;4.40;;;;;;;11.10;58.94;102270.16;4893174;28;96899;-49
2023/05/25 01:22:42;;;;;;;12.70;4.53;;;;;;;11.12;59.04;102273.22;4892971;28;97117;-50
2023/05/25 01:25:30;;;;;;;5.27;4.00;;;;;;;11.10;59.61;102281.16;4894727;28;96749;-50
2023/05/25 01:28:23;;;;;;;5.57;4.20;;;;;;;11.07;59.70;102280.09;4893995;28;97142;-49
2023/05/25 01:30:52;;;;;;;4.97;4.20;;;;;;;11.05;59.14;102279.03;4892854;28;97393;-50
2023/05/25 01:33:18;;;;;;;6.50;4.17;;;;;;;11.03;58.96;102279.47;4890514;28;96924;-51
2023/05/25 01:35:44;;;;;;;6.07;4.80;;;;;;;11.02;59.34;102274.41;4897227;28;100238;-50
2023/05/25 01:38:09;;;;;;;11.87;5.20;;;;;;;11.07;59.22;102285.59;4893119;28;97488;-50
2023/05/25 01:40:35;;;;;;;8.07;4.80;;;;;;;11.11;59.29;102283.47;4892943;28;96773;-49
2023/05/25 01:43:00;;;;;;;4.43;3.77;;;;;;;11.14;59.37;102282.56;4895165;28;97044;-49
2023/05/25 01:45:26;;;;;;;6.57;4.10;;;;;;;11.16;59.13;102285.63;4896490;28;97498;-50
2023/05/25 01:48:07;;;;;;;6.87;4.73;;;;;;;11.17;59.24;102278.91;4894068;28;97244;-50
2023/05/25 01:50:39;;;;;;;8.67;4.67;;;;;;;11.18;59.39;102272.16;4894702;28;97077;-50
2023/05/25 01:53:09;;;;;;;7.87;5.00;;;;;;;11.20;59.42;102302.00;4891661;28;97323;-50
2023/05/25 01:55:48;;;;;;;8.50;5.43;;;;;;;11.22;59.82;102278.31;4893315;28;97662;-49
2023/05/25 01:58:15;;;;;;;9.23;4.53;;;;;;;11.26;59.43;102281.66;4892698;28;97302;-51
2023/05/25 02:00:41;;;;;;;8.30;5.40;;;;;;;11.31;59.51;102280.31;4893625;28;96705;-49
2023/05/25 02:03:08;;;;;;;5.13;4.63;;;;;;;11.36;59.45;102276.19;4893558;28;96963;-48
2023/05/25 02:05:34;;;;;;;8.13;6.10;;;;;;;11.43;59.48;102282.13;4894113;28;97467;-49
2023/05/25 02:08:00;;;;;;;6.53;5.40;;;;;;;11.47;59.54;102276.47;4893720;28;97604;-51
2023/05/25 02:10:25;;;;;;;8.87;5.57;;;;;;;11.50;59.64;102276.31;4894345;28;96898;-49
2023/05/25 02:12:50;;;;;;;5.90;5.30;;;;;;;11.58;59.70;102280.31;4852636;28;1248063;-50
2023/05/25 02:15:17;;;;;;;7.33;5.10;;;;;;;11.62;59.80;102283.66;4895770;28;97186;-50
2023/05/25 02:17:43;;;;;;;9.10;5.97;;;;;;;11.68;59.71;102281.09;4894845;28;97401;-50
2023/05/25 02:20:10;;;;;;;10.43;5.90;;;;;;;11.72;59.72;102279.72;4893137;28;96750;-51
2023/05/25 02:22:36;;;;;;;12.27;6.03;;;;;;;11.74;59.79;102274.53;4895407;28;97367;-50
2023/05/25 02:25:02;;;;;;;6.20;5.20;;;;;;;11.77;59.87;102278.34;4893158;28;99116;-50
2023/05/25 02:27:27;;;;;;;10.00;5.77;;;;;;;11.78;59.95;102271.59;4894518;28;97396;-51
2023/05/25 02:29:52;;;;;;;6.37;5.77;;;;;;;11.82;60.12;102281.25;4895523;28;97290;-50
2023/05/25 02:32:18;;;;;;;8.53;5.63;;;;;;;11.85;60.04;102274.81;4895467;28;97217;-51
2023/05/25 02:34:43;;;;;;;6.00;5.40;;;;;;;11.89;60.00;102283.69;4893835;28;97191;-50
2023/05/25 02:37:08;;;;;;;6.73;5.40;;;;;;;11.91;60.02;102278.47;4896515;28;102281;-50
2023/05/25 02:39:34;;;;;;;9.50;6.00;;;;;;;11.93;60.17;102284.31;4895527;28;97013;-50
2023/05/25 02:42:00;;;;;;;7.80;6.40;;;;;;;11.96;60.20;102285.38;4895104;28;97586;-51
2023/05/25 02:44:25;;;;;;;8.63;6.10;;;;;;;11.99;60.33;102290.72;4894262;28;97327;-49
2023/05/25 02:46:50;;;;;;;8.07;5.43;;;;;;;12.03;60.20;102274.78;4893786;28;97213;-50
2023/05/25 02:49:16;;;;;;;9.83;6.30;;;;;;;12.07;60.33;102285.66;4893183;28;97082;-50
2023/05/25 02:51:41;;;;;;;8.80;5.87;;;;;;;12.12;60.34;102295.31;4896507;28;96857;-51
2023/05/25 02:54:06;;;;;;;8.20;6.10;;;;;;;12.13;60.35;102296.81;4893027;28;99122;-51
2023/05/25 02:56:32;;;;;;;8.07;5.80;;;;;;;12.14;60.33;102284.56;4894673;28;105745;-50
2023/05/25 02:58:57;;;;;;;9.03;5.83;;;;;;;12.14;60.47;102287.34;4894690;28;97279;-49
2023/05/25 03:01:24;;;;;;;9.80;6.07;;;;;;;12.14;60.47;102285.34;4893726;28;97161;-50
2023/05/25 03:03:51;;;;;;;9.17;7.33;;;;;;;12.18;60.66;102283.19;4893085;28;98017;-50
2023/05/25 03:06:17;;;;;;;9.93;6.47;;;;;;;12.23;60.61;102299.09;4892481;28;97435;-50
2023/05/25 03:08:43;;;;;;;11.07;8.00;;;;;;;12.28;60.53;102286.69;4894038;28;97446;-51
2023/05/25 03:11:08;;;;;;;7.20;6.57;;;;;;;12.27;60.66;102294.22;4892263;28;96871;-50
2023/05/25 03:13:34;;;;;;;14.43;6.53;;;;;;;12.28;60.79;102298.47;4893884;28;100019;-50
2023/05/25 03:15:59;;;;;;;11.37;6.97;;;;;;;12.28;60.80;102290.22;4894579;28;97427;-50
2023/05/25 03:18:26;;;;;;;11.03;7.53;;;;;;;12.32;60.91;102293.56;4895282;28;97021;-49
2023/05/25 03:20:52;;;;;;;12.00;7.10;;;;;;;12.36;60.88;102296.19;4893410;28;97259;-48
2023/05/25 03:23:17;;;;;;;10.23;7.40;;;;;;;12.36;60.88;102301.69;4896013;28;96891;-47
2023/05/25 03:25:42;;;;;;;8.40;6.70;;;;;;;12.39;60.84;102295.22;4891528;28;99430;-50
2023/05/25 03:28:08;;;;;;;9.80;7.13;;;;;;;12.41;61.07;102298.28;4893643;28;97013;-48
2023/05/25 03:30:33;;;;;;;11.93;7.50;;;;;;;12.41;61.03;102299.06;4895688;28;96906;-50
2023/05/25 03:32:58;;;;;;;8.40;7.07;;;;;;;12.43;61.07;102298.59;4892665;28;97080;-51
2023/05/25 03:35:24;;;;;;;10.50;6.57;;;;;;;12.44;61.20;102298.16;4893659;28;97215;-51
2023/05/25 03:37:49;;;;;;;10.83;7.40;;;;;;;12.45;61.21;102326.53;4894514;28;97250;-51
2023/05/25 03:40:14;;;;;;;15.90;7.97;;;;;;;12.48;61.07;102309.00;4892603;28;97047;-50
2023/05/25 03:42:40;;;;;;;10.17;7.80;;;;;;;12.49;60.95;102316.81;4891064;28;107104;-50
2023/05/25 03:45:07;;;;;;;8.93;7.37;;;;;;;12.50;61.03;102320.34;4892918;28;98412;-48
2023/05/25 03:47:33;;;;;;;16.40;7.90;;;;;;;12.44;61.02;102313.94;4893127;28;96998;-50
2023/05/25 03:49:58;;;;;;;14.23;8.03;;;;;;;12.45;61.24;102323.75;4895558;28;97241;-51
2023/05/25 03:52:24;;;;;;;13.67;7.60;;;;;;;12.48;61.34;102311.78;4885160;28;97364;-50
2023/05/25 03:54:49;;;;;;;15.23;7.77;;;;;;;12.47;61.38;102324.06;4893019;28;97344;-50
2023/05/25 03:57:14;;;;;;;10.07;7.07;;;;;;;12.54;61.29;102313.44;4893835;28;96739;-50
2023/05/25 03:59:40;;;;;;;9.80;8.23;;;;;;;12.58;61.44;102321.56;4890855;28;97149;-50
2023/05/25 04:02:05;;;;;;;9.17;7.50;;;;;;;12.59;61.44;102328.59;4892617;28;98309;-50
2023/05/25 04:04:31;;;;;;;11.43;8.37;;;;;;;12.59;61.42;102326.63;4895243;28;97349;-50
2023/05/25 04:06:56;;;;;;;11.57;7.77;;;;;;;12.62;61.31;102327.69;4891914;28;97049;-49
2023/05/25 04:09:21;;;;;;;10.97;7.90;;;;;;;12.63;61.48;102326.44;4890354;28;97272;-51
2023/05/25 04:11:47;;;;;;;11.17;7.83;;;;;;;12.66;61.49;102325.53;4895825;28;98575;-50
2023/05/25 04:14:12;;;;;;;9.93;7.13;;;;;;;12.67;61.28;102327.81;4906019;28;102073;-49
2023/05/25 04:16:40;;;;;;;8.23;7.40;;;;;;;12.68;61.32;102328.56;4903668;28;97572;-50
2023/05/25 04:19:05;;;;;;;11.90;7.40;;;;;;;12.70;61.34;102323.34;4899579;28;97189;-47
2023/05/25 04:21:31;;;;;;;8.60;6.40;;;;;;;12.75;61.25;102331.00;4891287;28;97674;-49
2023/05/25 04:23:56;;;;;;;10.10;6.07;;;;;;;12.75;61.33;102328.25;4890370;28;96753;-51
2023/05/25 04:26:22;;;;;;;7.43;6.57;;;;;;;12.78;61.47;102327.31;4894573;28;97042;-48
2023/05/25 04:28:47;;;;;;;9.50;7.23;;;;;;;12.79;61.44;102332.38;4893323;28;97045;-50
2023/05/25 04:31:13;;;;;;;10.43;6.20;;;;;;;12.79;61.49;102329.63;4893645;28;98504;-50
2023/05/25 04:33:39;;;;;;;7.30;5.87;;;;;;;12.82;61.51;102328.66;4893761;28;97308;-51
2023/05/25 04:36:05;;;;;;;8.20;5.80;;;;;;;12.86;61.36;102334.03;4893763;28;97149;-50
2023/05/25 04:38:32;;;;;;;9.63;5.63;;;;;;;12.91;61.23;102338.16;4894077;28;97602;-50
2023/05/25 04:41:02;;;;;;;5.90;5.30;;;;;;;12.94;61.51;102348.25;4891870;28;96795;-51
2023/05/25 04:43:28;;;;;;;6.93;5.67;;;;;;;12.95;61.54;102342.28;4893336;28;97136;-51
2023/05/25 04:45:58;;;;;;;8.57;5.57;;;;;;;12.98;61.57;102346.09;4891331;28;96751;-50
2023/05/25 04:48:24;;;;;;;12.03;5.87;;;;;;;12.99;61.38;102348.41;4893736;28;97509;-51
2023/05/25 04:50:51;;;;;;;9.67;5.07;;;;;;;13.02;61.46;102346.72;4891130;28;97552;-49
2023/05/25 04:53:17;;;;;;;9.97;5.90;;;;;;;13.04;61.55;102347.75;4892481;28;98826;-50
2023/05/25 04:55:42;;;;;;;9.33;5.00;;;;;;;13.07;61.36;102348.84;4892093;28;96647;-49
2023/05/25 04:58:07;;;;;;;9.07;5.60;;;;;;;13.11;61.35;102350.22;4894806;28;97040;-50
2023/05/25 05:00:33;;;;;;;9.50;6.43;;;;;;;13.14;61.35;102349.28;4896582;28;106013;-50
2023/05/25 05:02:59;;;;;;;9.47;5.67;;;;;;;13.18;61.23;102358.16;4895294;28;109834;-51
2023/05/25 05:05:24;;;;;;;6.10;4.67;;;;;;;13.22;61.16;102369.81;4899075;28;97540;-50
2023/05/25 05:07:50;;;;;;;7.00;5.30;;;;;;;13.26;61.16;102367.63;4897338;28;97020;-49
2023/05/25 05:10:16;;;;;;;9.53;5.50;;;;;;;13.30;61.19;102364.72;4896903;28;100071;-50
2023/05/25 05:12:42;;;;;;;10.47;5.70;;;;;;;13.32;60.97;102359.47;4895107;28;97327;-50
2023/05/25 05:15:07;;;;;;;9.60;5.23;;;;;;;13.34;61.10;102360.53;4901066;28;97001;-50
2023/05/25 05:17:33;;;;;;;8.47;4.97;;;;;;;13.35;61.11;102362.06;4895670;28;97241;-51
2023/05/25 05:19:58;;;;;;;9.13;5.60;;;;;;;13.38;61.22;102361.13;4896649;28;97637;-50
2023/05/25 05:22:23;;;;;;;12.57;6.00;;;;;;;13.43;61.15;102366.00;4893542;28;97565;-50
2023/05/25 05:24:49;;;;;;;12.10;5.53;;;;;;;13.47;61.07;102366.59;4896236;28;96990;-50
2023/05/25 05:27:15;;;;;;;8.10;5.20;;;;;;;13.54;61.20;102365.47;4891699;28;97261;-50
2023/05/25 05:29:41;;;;;;;7.70;5.30;;;;;;;13.59;61.09;102367.56;4894907;28;97069;-50
2023/05/25 05:32:07;;;;;;;8.67;5.20;;;;;;;13.63;61.19;102372.94;4895982;28;97393;-48
2023/05/25 05:34:33;;;;;;;8.87;6.10;;;;;;;13.66;61.00;102372.75;4893292;28;97067;-50
2023/05/25 05:37:01;;;;;;;9.80;5.90;;;;;;;13.69;61.21;102374.59;4895646;28;96983;-49
2023/05/25 05:39:26;;;;;;;7.00;4.83;;;;;;;13.73;61.13;102377.19;4897646;28;99482;-49
2023/05/25 05:41:52;;;;;;;9.27;5.80;;;;;;;13.79;60.96;102381.59;4894077;28;98477;-50
2023/05/25 05:44:20;;;;;;;10.37;5.87;;;;;;;13.84;61.02;102388.47;4894363;28;96988;-50
2023/05/25 05:46:45;;;;;;;7.73;5.40;;;;;;;13.89;61.19;102391.34;4895295;28;96683;-50
2023/05/25 05:49:10;;;;;;;8.63;5.77;;;;;;;13.94;61.07;102387.16;4894061;28;97037;-51
2023/05/25 05:51:35;;;;;;;6.60;5.13;;;;;;;13.96;61.06;102390.97;4892348;28;97112;-50
2023/05/25 05:54:01;;;;;;;9.03;6.17;;;;;;;14.02;61.52;102393.88;4895095;28;96827;-49
2023/05/25 05:56:26;;;;;;;6.47;5.40;;;;;;;14.06;61.24;102395.22;4894557;28;97872;-50
2023/05/25 05:58:53;;;;;;;9.30;5.47;;;;;;;14.10;61.33;102403.31;4894522;28;97606;-51
2023/05/25 06:01:18;;;;;;;12.80;6.00;;;;;;;14.14;61.31;102401.91;4894745;28;97375;-51
2023/05/25 06:03:44;;;;;;;8.57;6.00;;;;;;;14.16;61.25;102402.19;4894325;28;97215;-51
2023/05/25 06:06:10;;;;;;;12.67;6.00;;;;;;;14.21;61.28;102411.84;4896547;28;96844;-51
2023/05/25 06:08:35;;;;;;;8.77;6.10;;;;;;;14.23;61.26;102401.06;4899097;28;97204;-50
2023/05/25 06:11:01;;;;;;;10.37;6.03;;;;;;;14.30;61.34;102403.50;4892745;28;96933;-50
2023/05/25 06:13:26;;;;;;;8.93;5.47;;;;;;;14.31;61.28;102407.03;4893429;28;97103;-49
2023/05/25 06:15:51;;;;;;;7.80;4.77;;;;;;;14.35;61.15;102404.84;4901648;28;97262;-49
2023/05/25 06:18:17;;;;;;;8.50;4.87;;;;;;;14.41;61.15;102408.47;4906475;28;99259;-50
2023/05/25 06:20:43;;;;;;;7.17;5.30;;;;;;;14.44;61.14;102413.06;4894162;28;97027;-51
2023/05/25 06:23:10;;;;;;;6.80;4.80;;;;;;;14.48;61.13;102408.09;4891696;28;97534;-48
2023/05/25 06:25:36;;;;;;;9.03;6.40;;;;;;;14.50;61.06;102414.69;4893822;28;97293;-50
2023/05/25 06:28:01;;;;;;;6.97;5.77;;;;;;;14.52;61.20;102420.50;4894502;28;96938;-47
2023/05/25 06:30:27;;;;;;;8.40;5.30;;;;;;;14.58;61.08;102412.28;4894455;28;97206;-50
2023/05/25 06:32:52;;;;;;;13.47;5.83;;;;;;;14.62;61.04;102421.16;4894013;28;97575;-50
2023/05/25 06:35:20;;;;;;;5.70;4.20;;;;;;;14.65;61.01;102418.22;4895831;28;97131;-51
2023/05/25 06:37:47;;;;;;;9.67;5.60;;;;;;;14.70;61.11;102409.22;4891315;28;97391;-50
2023/05/25 06:40:13;;;;;;;7.60;4.63;;;;;;;14.74;60.96;102417.38;4893103;28;97455;-51
2023/05/25 06:42:39;;;;;;;11.47;5.70;;;;;;;14.80;60.95;102424.53;4894941;28;96877;-51
2023/05/25 06:45:05;;;;;;;7.87;4.83;;;;;;;14.82;60.91;102426.81;4892548;28;97033;-50
2023/05/25 06:47:30;;;;;;;6.13;4.90;;;;;;;14.84;60.98;102424.31;4893255;28;97655;-51
2023/05/25 06:49:56;;;;;;;9.93;5.23;;;;;;;14.83;60.97;102423.56;4898249;28;107834;-50
2023/05/25 06:52:21;;;;;;;8.53;5.20;;;;;;;14.82;60.78;102427.59;4894180;28;97151;-53
2023/05/25 06:54:46;;;;;;;5.53;4.33;;;;;;;14.82;60.89;102433.13;4892984;28;97766;-51
2023/05/25 06:57:12;;;;;;;10.33;4.70;;;;;;;14.86;60.81;102433.69;4889518;28;97547;-50
2023/05/25 06:59:37;;;;;;;5.43;4.40;;;;;;;14.88;60.88;102431.19;4893161;28;97157;-50
2023/05/25 07:02:02;;;;;;;8.83;4.37;;;;;;;14.89;60.84;102432.75;4893850;28;97040;-49
2023/05/25 07:04:27;;;;;;;9.93;4.53;;;;;;;14.81;60.85;102439.91;4895196;28;97021;-49
2023/05/25 07:06:53;;;;;;;5.43;4.33;;;;;;;14.82;60.69;102452.53;4895258;28;99091;-50
2023/05/25 07:09:18;;;;;;;8.70;4.60;;;;;;;14.82;60.93;102444.22;4891452;28;106361;-50
2023/05/25 07:11:44;;;;;;;8.53;4.20;;;;;;;14.84;60.68;102444.50;4893180;28;97230;-51
2023/05/25 07:14:09;;;;;;;6.60;4.40;;;;;;;14.87;60.61;102440.75;4891261;28;97252;-50
2023/05/25 07:16:34;;;;;;;8.80;4.57;;;;;;;14.88;60.69;102453.38;4892208;28;96943;-49
2023/05/25 07:19:00;;;;;;;6.10;4.17;;;;;;;14.87;60.71;102454.59;4899627;28;97256;-49
2023/05/25 07:21:26;;;;;;;6.60;4.40;;;;;;;14.91;60.62;102455.19;4890824;28;96518;-50
2023/05/25 07:23:51;;;;;;;8.83;4.60;;;;;;;14.96;60.61;102457.28;4893951;28;97248;-51
2023/05/25 07:26:16;;;;;;;6.60;3.70;;;;;;;15.01;60.55;102458.63;4892998;28;97674;-49
2023/05/25 07:28:42;;;;;;;6.37;4.60;;;;;;;15.05;60.57;102461.94;4896009;28;97154;-50
2023/05/25 07:31:08;;;;;;;7.07;4.17;;;;;;;15.09;60.53;102467.31;4890913;28;97292;-50
2023/05/25 07:33:34;;;;;;;5.60;3.87;;;;;;;15.10;60.59;102464.06;4892156;28;97032;-50
2023/05/25 07:35:59;;;;;;;5.20;3.70;;;;;;;15.10;60.57;102460.53;4894194;28;101512;-50
2023/05/25 07:38:25;;;;;;;6.00;4.53;;;;;;;15.15;60.59;102465.41;4894347;28;98327;-51
2023/05/25 07:40:51;;;;;;;5.90;3.97;;;;;;;15.18;60.51;102467.97;4894210;28;97230;-51
2023/05/25 07:43:16;;;;;;;4.13;3.73;;;;;;;15.21;60.35;102469.78;4892472;28;96941;-51
2023/05/25 07:45:42;;;;;;;7.53;3.63;;;;;;;15.20;60.41;102471.00;4894091;28;97417;-50
2023/05/25 07:48:08;;;;;;;10.93;4.73;;;;;;;15.21;60.48;102477.34;4895597;28;97079;-50
2023/05/25 07:50:33;;;;;;;7.50;4.20;;;;;;;15.24;60.43;102468.84;4893683;28;97041;-50
2023/05/25 07:52:59;;;;;;;8.03;3.93;;;;;;;15.29;60.35;102475.72;4893323;28;96817;-50
2023/05/25 07:55:25;;;;;;;7.60;3.60;;;;;;;15.33;60.33;102470.72;4891118;28;97310;-50
2023/05/25 07:57:51;;;;;;;7.70;4.60;;;;;;;15.32;59.99;102474.75;4893035;28;97166;-48
2023/05/25 08:00:17;;;;;;;5.83;3.93;;;;;;;15.31;60.01;102479.50;4891102;28;97511;-51
2023/05/25 08:02:43;;;;;;;6.00;3.13;;;;;;;15.32;60.07;102480.28;4892142;28;97290;-50
2023/05/25 08:05:08;;;;;;;4.50;3.73;;;;;;;15.29;60.20;102478.50;4895936;28;105935;-51
2023/05/25 08:07:34;;;;;;;4.30;3.63;;;;;;;15.33;60.21;102477.03;4893178;28;97168;-51
2023/05/25 08:10:00;;;;;;;7.77;3.73;;;;;;;15.35;60.08;102474.56;4892932;28;97170;-51
2023/05/25 08:12:26;;;;;;;7.03;3.80;;;;;;;15.38;60.26;102476.34;4894209;28;97308;-51
2023/05/25 08:14:52;;;;;;;5.60;4.03;;;;;;;15.44;60.00;102480.00;4892301;28;103213;-51
2023/05/25 08:17:18;;;;;;;4.57;3.27;;;;;;;15.47;59.97;102487.38;4893542;28;96894;-50
2023/05/25 08:19:43;;;;;;;6.47;3.37;;;;;;;15.48;59.85;102486.13;4895861;28;97242;-51
2023/05/25 08:22:09;;;;;;;7.07;3.53;;;;;;;15.49;59.87;102495.19;4893866;28;97263;-49
2023/05/25 08:24:34;;;;;;;7.17;3.60;;;;;;;15.51;59.71;102487.16;4891535;28;97274;-51
2023/05/25 08:27:00;;;;;;;13.10;3.53;;;;;;;15.52;59.82;102488.69;4890190;28;97357;-49
2023/05/25 08:29:26;;;;;;;4.77;3.03;;;;;;;15.55;59.69;102482.19;4893241;28;96759;-51
2023/05/25 08:31:51;;;;;;;8.90;4.07;;;;;;;15.57;59.67;102479.69;4892609;28;97098;-50
2023/05/25 08:34:16;;;;;;;6.27;3.13;;;;;;;15.60;59.56;102479.47;4891078;28;97237;-50
2023/05/25 08:36:42;;;;;;;4.90;3.20;;;;;;;15.64;59.58;102479.28;4893885;28;97110;-49
2023/05/25 08:39:08;;;;;;;5.17;3.77;;;;;;;15.72;59.67;102478.41;4891684;28;96758;-51
2023/05/25 08:41:41;;;;;;;6.43;3.73;;;;;;;15.77;59.13;102495.63;4891691;28;96964;-50
2023/05/25 08:44:07;;;;;;;4.53;3.60;;;;;;;15.80;59.32;102491.84;4890229;28;97128;-48
2023/05/25 08:46:33;;;;;;;7.17;3.70;;;;;;;15.87;59.13;102499.78;4892246;28;97114;-50
2023/05/25 08:49:07;;;;;;;6.27;3.40;;;;;;;15.91;58.86;102490.00;4892432;28;96717;-51
2023/05/25 08:51:50;;;;;;;9.93;3.80;;;;;;;15.96;58.87;102494.88;4893706;28;97153;-48
2023/05/25 08:54:23;;;;;;;5.17;3.00;;;;;;;16.04;58.55;102495.97;4893128;28;97554;-51
2023/05/25 08:56:51;;;;;;;3.97;2.60;;;;;;;16.10;58.59;102496.81;4895270;28;97194;-51
2023/05/25 08:59:33;;;;;;;4.80;2.80;;;;;;;16.15;58.25;102501.69;4893148;28;96756;-51
2023/05/25 09:02:28;;;;;;;2.67;2.47;;;;;;;16.21;57.87;102499.72;4896680;28;96901;-50
2023/05/25 09:04:55;;;;;;;4.13;2.53;;;;;;;16.28;58.26;102504.88;4911573;28;97373;-51
2023/05/25 09:07:20;;;;;;;3.53;2.70;;;;;;;16.28;58.27;102496.53;4892476;28;96972;-51
2023/05/25 09:09:47;;;;;;;4.93;3.10;;;;;;;16.33;58.34;102500.63;4892432;28;96793;-51
2023/05/25 09:12:14;;;;;;;6.73;3.20;;;;;;;16.37;58.36;102504.72;4893705;28;97312;-48
2023/05/25 09:14:44;;;;;;;4.37;3.10;;;;;;;16.42;57.97;102512.34;4889904;28;97896;-49
2023/05/25 09:17:11;;;;;;;4.90;2.70;;;;;;;16.44;57.74;102509.09;4891520;28;97583;-50
2023/05/25 09:19:37;;;;;;;3.57;3.00;;;;;;;16.46;57.92;102510.13;4890689;28;96881;-52
2023/05/25 09:22:02;;;;;;;5.77;3.30;;;;;;;16.46;57.77;102504.56;4895509;28;96941;-50
2023/05/25 09:24:28;;;;;;;5.67;3.27;;;;;;;16.47;57.68;102506.09;4893796;28;97313;-50
2023/05/25 09:26:53;;;;;;;6.57;3.43;;;;;;;16.45;57.47;102505.81;4894624;28;96788;-50
2023/05/25 09:29:19;;;;;;;3.40;3.10;;;;;;;16.48;57.82;102510.41;4892213;28;96960;-49
2023/05/25 09:31:45;;;;;;;4.00;3.60;;;;;;;16.53;57.39;102513.75;4891933;28;96801;-50
2023/05/25 09:34:12;;;;;;;6.93;3.70;;;;;;;16.58;57.41;102510.28;4890044;28;97024;-48
2023/05/25 09:36:40;;;;;;;8.17;3.83;;;;;;;16.68;57.39;102511.66;4892373;28;97331;-50
2023/05/25 09:39:10;;;;;;;8.87;3.47;;;;;;;16.81;57.25;102503.69;4890440;28;97476;-51
2023/05/25 09:41:39;;;;;;;5.63;3.77;;;;;;;16.90;56.90;102509.88;4891400;28;96994;-51
2023/05/25 09:44:04;;;;;;;3.70;3.40;;;;;;;16.96;57.00;102512.69;4893098;28;97850;-49
2023/05/25 09:46:35;;;;;;;3.63;3.23;;;;;;;17.01;56.73;102509.19;4892942;28;96845;-51
2023/05/25 09:49:00;;;;;;;4.57;3.67;;;;;;;17.05;56.67;102504.16;4895023;28;96712;-51
2023/05/25 09:51:26;;;;;;;3.90;3.50;;;;;;;17.20;56.98;102510.38;4893443;28;96681;-50
2023/05/25 09:53:51;;;;;;;3.83;3.43;;;;;;;17.31;56.59;102515.25;4894174;28;97764;-51
2023/05/25 09:56:17;;;;;;;6.07;3.90;;;;;;;17.38;56.36;102515.56;4895080;28;97285;-51
2023/05/25 09:58:42;;;;;;;4.80;3.47;;;;;;;17.47;56.55;102517.41;4899620;28;97060;-51
2023/05/25 10:01:07;;;;;;;4.13;3.20;;;;;;;17.57;56.29;102518.75;4893215;28;97200;-52
2023/05/25 10:03:33;;;;;;;4.73;3.73;;;;;;;17.62;55.93;102518.03;4894048;28;98607;-50
2023/05/25 10:05:59;;;;;;;3.57;3.27;;;;;;;17.66;55.91;102518.56;4896011;28;97015;-52
2023/05/25 10:08:26;;;;;;;5.90;3.47;;;;;;;17.72;55.83;102519.38;4894365;28;96822;-51
2023/05/25 10:10:52;;;;;;;4.30;3.03;;;;;;;17.91;55.65;102517.69;4894861;28;97180;-51
2023/05/25 10:13:23;;;;;;;4.30;3.77;;;;;;;18.15;55.34;102522.91;4895515;28;96767;-51
2023/05/25 10:15:53;;;;;;;8.17;3.43;;;;;;;18.28;55.02;102523.22;4895232;28;97111;-52
2023/05/25 10:18:25;;;;;;;5.27;3.50;;;;;;;18.22;54.26;102522.41;4893819;28;96864;-50
2023/05/25 10:20:55;;;;;;;3.13;2.77;;;;;;;18.20;54.88;102514.56;4896485;28;96848;-49
2023/05/25 10:23:22;;;;;;;3.23;2.93;;;;;;;18.26;54.81;102528.53;4894074;28;97980;-51
2023/05/25 10:25:52;;;;;;;4.90;2.70;;;;;;;18.28;54.76;102523.22;4893652;28;96782;-51
2023/05/25 10:28:27;;;;;;;3.20;2.70;;;;;;;18.34;54.79;102532.34;4895439;28;96771;-51
2023/05/25 10:30:55;;;;;;;4.27;3.40;;;;;;;18.35;54.56;102537.41;4899030;28;97306;-51
2023/05/25 10:33:21;;;;;;;3.90;2.83;;;;;;;18.39;54.98;102526.03;4896916;28;96655;-49
2023/05/25 10:35:48;;;;;;;6.00;2.70;;;;;;;18.46;54.60;102531.13;4897886;28;97181;-49
2023/05/25 10:38:14;;;;;;;4.30;3.17;;;;;;;18.50;54.63;102523.31;4897735;28;96733;-51
2023/05/25 10:40:39;;;;;;;4.97;2.30;;;;;;;18.55;54.50;102525.34;4894070;28;97217;-51
2023/05/25 10:43:05;;;;;;;5.50;2.80;;;;;;;18.59;54.21;102531.44;4896317;28;97500;-50
2023/05/25 10:45:31;;;;;;;4.20;2.27;;;;;;;18.52;54.04;102521.53;4894500;28;97086;-50
2023/05/25 10:47:57;;;;;;;4.37;2.20;;;;;;;18.39;53.89;102523.25;4892906;28;97561;-50
2023/05/25 10:50:25;;;;;;;3.60;2.50;;;;;;;18.49;53.61;102510.63;4893817;28;97149;-51
2023/05/25 10:53:00;;;;;;;4.93;3.03;;;;;;;18.78;52.63;102501.06;4893574;28;97135;-51
2023/05/25 10:55:40;;;;;;;3.20;2.20;;;;;;;18.95;53.29;102508.19;4895313;28;96671;-49
2023/05/25 10:58:08;;;;;;;4.53;2.40;;;;;;;19.02;53.37;102504.13;4894648;28;96797;-50
2023/05/25 11:00:33;;;;;;;4.60;2.00;;;;;;;19.02;53.31;102510.47;4894547;28;97266;-51
2023/05/25 11:02:59;;;;;;;3.13;2.50;;;;;;;19.07;53.33;102506.13;4893448;28;97084;-50
2023/05/25 11:05:30;;;;;;;3.03;1.80;;;;;;;19.09;53.12;102518.31;4895655;28;97090;-50
2023/05/25 11:07:57;;;;;;;5.27;2.13;;;;;;;19.10;52.74;102508.69;4894653;28;96663;-51
2023/05/25 11:10:47;;;;;;;3.40;2.07;;;;;;;18.99;50.77;102502.34;4893480;28;97148;-49
2023/05/25 11:13:23;;;;;;;2.63;1.97;;;;;;;18.89;52.19;102504.63;4893712;28;96576;-49
2023/05/25 11:16:16;;;;;;;7.17;2.17;;;;;;;18.89;51.49;102507.44;4893605;28;96690;-50
2023/05/25 11:18:45;;;;;;;3.90;2.30;;;;;;;18.93;52.75;102499.56;4896984;28;97050;-51
2023/05/25 11:21:25;;;;;;;3.53;2.40;;;;;;;18.97;52.77;102500.06;4897138;28;97171;-51
2023/05/25 11:24:05;;;;;;;2.70;1.60;;;;;;;19.03;51.77;102503.63;4893479;28;97124;-50